createdAt,value
2023-04-29T00:01:59.931Z,44.63
2023-04-29T00:04:26.575Z,48.67
2023-04-29T00:06:53.904Z,50.55
2023-04-29T00:09:21.740Z,49.22
2023-04-29T00:11:48.238Z,48.97
2023-04-29T00:14:14.626Z,50.33
2023-04-29T00:16:41.122Z,50.95
2023-04-29T00:19:07.566Z,53.80
2023-04-29T00:21:33.948Z,56.25
2023-04-29T00:24:00.430Z,55.92
2023-04-29T00:26:26.803Z,62.33
2023-04-29T00:28:53.266Z,71.90
2023-04-29T00:31:21.647Z,66.72
2023-04-29T00:33:48.226Z,67.78
2023-04-29T00:36:14.992Z,67.25
2023-04-29T00:38:41.487Z,67.65
2023-04-29T00:41:08.351Z,71.65
2023-04-29T00:43:34.806Z,75.35
2023-04-29T00:46:01.297Z,74.00
2023-04-29T00:48:27.814Z,83.40
2023-04-29T00:50:54.271Z,77.75
2023-04-29T00:53:22.974Z,81.45
2023-04-29T00:55:51.566Z,82.07
2023-04-29T00:58:19.532Z,74.45
2023-04-29T01:00:46.880Z,81.40
2023-04-29T01:03:13.860Z,84.35
2023-04-29T01:05:40.544Z,81.18
2023-04-29T01:08:33.983Z,82.78
2023-04-29T01:11:11.532Z,78.18
2023-04-29T01:13:46.128Z,75.22
2023-04-29T01:16:23.292Z,79.25
2023-04-29T01:18:54.861Z,68.82
2023-04-29T01:21:25.949Z,73.35
2023-04-29T01:23:56.349Z,74.65
2023-04-29T01:26:26.868Z,73.27
2023-04-29T01:29:27.808Z,70.85
2023-04-29T01:32:09.020Z,82.78
2023-04-29T01:34:58.953Z,75.03
2023-04-29T01:37:49.406Z,78.05
2023-04-29T01:40:22.707Z,77.15
2023-04-29T01:43:12.606Z,79.10
2023-04-29T01:45:44.076Z,81.97
2023-04-29T01:48:12.726Z,78.07
2023-04-29T01:50:39.939Z,80.30
2023-04-29T01:53:15.772Z,86.95
2023-04-29T01:55:43.875Z,85.03
2023-04-29T01:58:16.791Z,77.30
2023-04-29T02:01:06.903Z,80.40
2023-04-29T02:03:36.295Z,87.18
2023-04-29T02:06:06.949Z,73.68
2023-04-29T02:08:34.270Z,74.88
2023-04-29T02:11:01.434Z,70.78
2023-04-29T02:13:34.504Z,62.65
2023-04-29T02:16:09.506Z,61.05
2023-04-29T02:18:37.770Z,58.30
2023-04-29T02:21:06.019Z,63.15
2023-04-29T02:23:37.775Z,56.33
2023-04-29T02:26:07.213Z,57.25
2023-04-29T02:28:34.924Z,56.13
2023-04-29T02:31:01.777Z,55.58
2023-04-29T02:33:28.607Z,58.22
2023-04-29T02:35:55.116Z,58.70
2023-04-29T02:38:22.534Z,56.17
2023-04-29T02:40:50.073Z,53.40
2023-04-29T02:43:16.565Z,48.97
2023-04-29T02:45:44.868Z,50.13
2023-04-29T02:48:11.365Z,51.47
2023-04-29T02:50:37.909Z,45.65
2023-04-29T02:53:04.531Z,46.72
2023-04-29T02:55:31.392Z,41.78
2023-04-29T02:58:04.130Z,44.13
2023-04-29T03:00:30.658Z,42.33
2023-04-29T03:02:57.608Z,44.42
2023-04-29T03:05:24.239Z,49.20
2023-04-29T03:07:50.749Z,45.75
2023-04-29T03:10:18.114Z,42.88
2023-04-29T03:12:44.698Z,43.90
2023-04-29T03:15:11.268Z,41.25
2023-04-29T03:17:37.839Z,43.72
2023-04-29T03:20:05.412Z,40.95
2023-04-29T03:22:31.870Z,42.40
2023-04-29T03:24:58.328Z,39.92
2023-04-29T03:27:24.825Z,45.03
2023-04-29T03:29:51.399Z,43.50
2023-04-29T03:32:18.065Z,41.90
2023-04-29T03:34:45.507Z,36.55
2023-04-29T03:37:27.427Z,37.80
2023-04-29T03:40:02.405Z,40.03
2023-04-29T03:42:29.105Z,37.85
2023-04-29T03:44:55.575Z,39.80
2023-04-29T03:47:22.057Z,36.38
2023-04-29T03:49:49.148Z,35.45
2023-04-29T03:52:16.231Z,34.88
2023-04-29T03:54:43.666Z,38.03
2023-04-29T03:57:10.199Z,35.83
2023-04-29T03:59:36.606Z,35.47
2023-04-29T04:02:03.241Z,37.80
2023-04-29T04:04:29.899Z,38.08
2023-04-29T04:06:56.599Z,35.05
2023-04-29T04:09:27.122Z,37.03
2023-04-29T04:11:53.615Z,34.10
2023-04-29T04:14:20.438Z,38.10
2023-04-29T04:16:47.053Z,35.60
2023-04-29T04:19:14.113Z,37.22
2023-04-29T04:21:43.743Z,36.83
2023-04-29T04:24:10.497Z,33.25
2023-04-29T04:26:37.867Z,36.78
2023-04-29T04:29:14.184Z,36.83
2023-04-29T04:31:55.627Z,34.33
2023-04-29T04:34:22.791Z,34.47
2023-04-29T04:36:51.443Z,33.40
2023-04-29T04:39:17.902Z,36.47
2023-04-29T04:41:44.938Z,31.27
2023-04-29T04:44:14.364Z,37.20
2023-04-29T04:46:53.035Z,32.42
2023-04-29T04:49:40.258Z,31.63
2023-04-29T04:52:06.993Z,34.00
2023-04-29T04:54:35.415Z,31.10
2023-04-29T04:57:16.443Z,34.15
2023-04-29T04:59:44.489Z,30.70
2023-04-29T05:02:11.042Z,31.73
2023-04-29T05:04:37.521Z,31.25
2023-04-29T05:07:03.981Z,35.28
2023-04-29T05:09:39.643Z,29.90
2023-04-29T05:12:06.128Z,28.70
2023-04-29T05:14:32.614Z,29.92
2023-04-29T05:17:00.050Z,32.47
2023-04-29T05:19:27.208Z,28.08
2023-04-29T05:21:53.886Z,27.98
2023-04-29T05:24:20.609Z,27.80
2023-04-29T05:26:47.451Z,27.67
2023-04-29T05:29:15.557Z,28.38
2023-04-29T05:31:50.295Z,29.80
2023-04-29T05:34:17.567Z,28.77
2023-04-29T05:36:43.987Z,27.98
2023-04-29T05:39:11.487Z,27.70
2023-04-29T05:41:38.510Z,29.00
2023-04-29T05:44:21.589Z,25.50
2023-04-29T05:46:49.033Z,24.98
2023-04-29T05:49:16.550Z,26.13
2023-04-29T05:51:42.914Z,27.70
2023-04-29T05:54:10.520Z,27.63
2023-04-29T05:56:37.280Z,28.75
2023-04-29T05:59:03.660Z,28.23
2023-04-29T06:01:30.213Z,29.08
2023-04-29T06:03:58.654Z,27.65
2023-04-29T06:06:53.548Z,25.25
2023-04-29T06:09:28.335Z,26.65
2023-04-29T06:12:00.961Z,27.05
2023-04-29T06:14:27.392Z,26.40
2023-04-29T06:16:53.974Z,26.77
2023-04-29T06:19:20.693Z,26.50
2023-04-29T06:21:48.194Z,28.75
2023-04-29T06:24:14.572Z,23.42
2023-04-29T06:26:41.004Z,25.65
2023-04-29T06:29:08.270Z,26.33
2023-04-29T06:31:36.144Z,24.40
2023-04-29T06:34:04.131Z,25.40
2023-04-29T06:36:32.170Z,26.67
2023-04-29T06:39:08.445Z,24.65
2023-04-29T06:42:08.617Z,24.42
2023-04-29T06:45:04.723Z,22.02
2023-04-29T06:47:52.449Z,24.27
2023-04-29T06:50:33.824Z,23.05
2023-04-29T06:53:00.261Z,22.98
2023-04-29T06:55:26.727Z,21.52
2023-04-29T06:57:53.416Z,24.10
2023-04-29T07:00:21.066Z,23.92
2023-04-29T07:02:47.878Z,22.02
2023-04-29T07:05:14.678Z,20.67
2023-04-29T07:07:43.054Z,22.40
2023-04-29T07:10:09.874Z,24.02
2023-04-29T07:12:37.167Z,23.13
2023-04-29T07:15:03.820Z,22.23
2023-04-29T07:17:31.400Z,22.35
2023-04-29T07:19:57.938Z,22.52
2023-04-29T07:22:24.542Z,23.77
2023-04-29T07:24:53.883Z,22.40
2023-04-29T07:27:21.060Z,23.30
2023-04-29T07:29:47.487Z,23.30
2023-04-29T07:32:14.499Z,21.80
2023-04-29T07:34:41.198Z,22.73
2023-04-29T07:37:07.680Z,23.77
2023-04-29T07:39:35.378Z,23.08
2023-04-29T07:42:04.466Z,23.05
2023-04-29T07:44:31.313Z,22.48
2023-04-29T07:46:57.771Z,26.42
2023-04-29T07:49:25.944Z,25.33
2023-04-29T07:51:52.382Z,25.88
2023-04-29T07:54:19.576Z,25.63
2023-04-29T07:56:46.445Z,23.75
2023-04-29T07:59:12.838Z,26.15
2023-04-29T08:01:41.231Z,27.33
2023-04-29T08:04:08.145Z,27.23
2023-04-29T08:06:42.559Z,31.58
2023-04-29T08:09:21.134Z,29.13
2023-04-29T08:11:47.567Z,27.33
2023-04-29T08:14:14.298Z,29.05
2023-04-29T08:16:40.708Z,30.75
2023-04-29T08:19:07.102Z,31.70
2023-04-29T08:21:34.801Z,30.88
2023-04-29T08:24:01.364Z,28.25
2023-04-29T08:26:28.158Z,27.27
2023-04-29T08:28:54.548Z,29.13
2023-04-29T08:31:21.867Z,29.92
2023-04-29T08:33:48.645Z,29.40
2023-04-29T08:36:15.447Z,30.45
2023-04-29T08:38:41.892Z,28.60
2023-04-29T08:41:09.705Z,38.83
2023-04-29T08:43:42.670Z,34.95
2023-04-29T08:46:10.622Z,35.35
2023-04-29T08:48:41.302Z,32.30
2023-04-29T08:51:12.754Z,35.22
2023-04-29T08:53:39.178Z,34.17
2023-04-29T08:56:16.005Z,37.70
2023-04-29T08:58:43.380Z,36.13
2023-04-29T09:01:10.940Z,32.85
2023-04-29T09:03:42.806Z,36.58
2023-04-29T09:06:10.776Z,38.75
2023-04-29T09:08:37.471Z,31.83
2023-04-29T09:11:05.206Z,34.58
2023-04-29T09:13:32.729Z,32.05
2023-04-29T09:15:59.766Z,37.67
2023-04-29T09:18:46.826Z,36.97
2023-04-29T09:21:19.023Z,29.33
2023-04-29T09:23:48.568Z,32.58
2023-04-29T09:26:15.781Z,31.02
2023-04-29T09:28:44.891Z,33.08
2023-04-29T09:31:12.488Z,33.28
2023-04-29T09:33:57.045Z,28.90
2023-04-29T09:36:40.492Z,30.30
2023-04-29T09:39:11.719Z,34.75
2023-04-29T09:41:57.112Z,31.45
2023-04-29T09:44:25.435Z,29.25
2023-04-29T09:47:29.329Z,32.90
2023-04-29T09:50:12.053Z,30.50
2023-04-29T09:52:42.341Z,32.60
2023-04-29T09:55:09.637Z,27.27
2023-04-29T09:57:44.902Z,29.13
2023-04-29T10:00:16.391Z,26.55
2023-04-29T10:02:46.597Z,26.33
2023-04-29T10:05:14.383Z,26.42
2023-04-29T10:07:41.655Z,25.55
2023-04-29T10:10:10.738Z,25.70
2023-04-29T10:12:40.891Z,27.48
2023-04-29T10:15:23.592Z,30.02
2023-04-29T10:17:54.809Z,27.55
2023-04-29T10:20:25.460Z,28.90
2023-04-29T10:22:54.730Z,24.25
2023-04-29T10:25:22.868Z,25.42
2023-04-29T10:27:52.968Z,26.88
2023-04-29T10:30:20.350Z,27.33
2023-04-29T10:32:51.937Z,24.70
2023-04-29T10:35:23.177Z,23.17
2023-04-29T10:37:50.432Z,29.67
2023-04-29T10:40:22.181Z,27.95
2023-04-29T10:42:53.577Z,28.38
2023-04-29T10:45:31.151Z,25.30
2023-04-29T10:48:06.764Z,29.42
2023-04-29T10:50:35.681Z,24.02
2023-04-29T10:53:03.829Z,26.35
2023-04-29T10:55:31.160Z,24.98
2023-04-29T10:57:57.991Z,26.08
2023-04-29T11:00:29.888Z,25.30
2023-04-29T11:02:58.654Z,23.77
2023-04-29T11:05:36.225Z,27.75
2023-04-29T11:08:24.607Z,23.75
2023-04-29T11:10:54.667Z,23.65
2023-04-29T11:13:25.975Z,20.40
2023-04-29T11:15:53.836Z,23.40
2023-04-29T11:18:20.760Z,23.45
2023-04-29T11:21:05.819Z,22.65
2023-04-29T11:23:36.680Z,22.60
2023-04-29T11:26:03.749Z,19.45
2023-04-29T11:28:31.764Z,22.65
2023-04-29T11:30:59.570Z,21.27
2023-04-29T11:33:27.818Z,22.52
2023-04-29T11:35:54.908Z,21.88
2023-04-29T11:38:31.281Z,20.92
2023-04-29T11:40:58.190Z,19.77
2023-04-29T11:43:25.303Z,18.13
2023-04-29T11:45:53.394Z,22.05
2023-04-29T11:48:21.065Z,23.80
2023-04-29T11:50:49.552Z,19.23
2023-04-29T11:53:16.105Z,19.30
2023-04-29T11:55:43.539Z,20.25
2023-04-29T11:58:10.704Z,18.20
2023-04-29T12:00:37.381Z,17.10
2023-04-29T12:03:34.147Z,16.60
2023-04-29T12:06:01.922Z,13.70
2023-04-29T12:08:30.702Z,15.13
2023-04-29T12:10:58.989Z,15.27
2023-04-29T12:13:29.306Z,14.93
2023-04-29T12:15:56.970Z,12.30
2023-04-29T12:18:23.788Z,11.48
2023-04-29T12:20:57.465Z,12.80
2023-04-29T12:23:28.393Z,12.98
2023-04-29T12:26:00.202Z,12.75
2023-04-29T12:28:27.273Z,11.73
2023-04-29T12:30:54.813Z,12.35
2023-04-29T12:33:24.444Z,11.80
2023-04-29T12:35:54.076Z,10.98
2023-04-29T12:38:27.883Z,11.68
2023-04-29T12:40:55.297Z,13.50
2023-04-29T12:43:31.733Z,12.88
2023-04-29T12:46:03.599Z,11.38
2023-04-29T12:48:34.137Z,15.48
2023-04-29T12:51:03.967Z,13.05
2023-04-29T12:53:31.092Z,15.23
2023-04-29T12:55:58.036Z,11.85
2023-04-29T12:58:24.528Z,13.98
2023-04-29T13:00:50.997Z,13.60
2023-04-29T13:03:19.170Z,12.00
2023-04-29T13:05:51.261Z,13.95
2023-04-29T13:08:18.172Z,15.95
2023-04-29T13:10:44.644Z,12.38
2023-04-29T13:13:10.994Z,13.90
2023-04-29T13:15:41.224Z,12.70
2023-04-29T13:18:08.013Z,13.05
2023-04-29T13:20:41.145Z,10.70
2023-04-29T13:23:09.209Z,11.10
2023-04-29T13:25:35.906Z,9.80
2023-04-29T13:28:02.669Z,10.60
2023-04-29T13:30:29.086Z,12.77
2023-04-29T13:32:59.883Z,12.18
2023-04-29T13:35:30.900Z,11.43
2023-04-29T13:37:57.366Z,10.73
2023-04-29T13:40:27.869Z,12.43
2023-04-29T13:43:02.142Z,9.98
2023-04-29T13:45:39.011Z,9.10
2023-04-29T13:48:20.814Z,10.40
2023-04-29T13:53:46.185Z,9.73
2023-04-29T13:59:19.788Z,9.25
2023-04-29T14:03:53.603Z,11.73
2023-04-29T14:06:20.401Z,12.85
2023-04-29T14:08:46.807Z,11.75
2023-04-29T14:11:13.259Z,10.52
2023-04-29T14:13:40.206Z,10.00
2023-04-29T14:16:07.253Z,10.80
2023-04-29T14:18:33.762Z,11.30
2023-04-29T14:21:00.179Z,9.80
2023-04-29T14:23:26.573Z,10.07
2023-04-29T14:25:58.819Z,10.75
2023-04-29T14:28:33.161Z,10.45
2023-04-29T14:30:59.605Z,9.75
2023-04-29T14:33:26.278Z,11.50
2023-04-29T14:35:53.482Z,11.07
2023-04-29T14:38:19.874Z,10.63
2023-04-29T14:40:46.363Z,11.30
2023-04-29T14:43:12.797Z,12.82
2023-04-29T14:45:39.182Z,10.52
2023-04-29T14:48:05.689Z,13.02
2023-04-29T14:50:32.136Z,10.27
2023-04-29T14:52:59.772Z,9.35
2023-04-29T14:55:26.141Z,9.40
2023-04-29T14:57:52.535Z,11.65
2023-04-29T15:00:19.289Z,9.77
2023-04-29T15:02:45.851Z,9.77
2023-04-29T15:05:12.700Z,9.35
2023-04-29T15:07:39.178Z,10.43
2023-04-29T15:10:07.742Z,8.82
2023-04-29T15:12:34.527Z,10.35
2023-04-29T15:15:00.955Z,11.85
2023-04-29T15:17:28.462Z,11.25
2023-04-29T15:19:54.975Z,9.63
2023-04-29T15:22:21.370Z,10.82
2023-04-29T15:27:16.211Z,9.00
2023-04-29T15:29:42.767Z,10.20
2023-04-29T15:32:10.439Z,8.50
2023-04-29T15:34:37.002Z,10.82
2023-04-29T15:37:03.438Z,9.68
2023-04-29T15:39:29.884Z,10.73
2023-04-29T15:41:58.599Z,11.98
2023-04-29T15:44:24.982Z,10.75
2023-04-29T15:46:51.577Z,10.60
2023-04-29T15:49:17.972Z,9.43
2023-04-29T15:51:44.350Z,9.27
2023-04-29T15:54:10.723Z,10.07
2023-04-29T15:56:37.196Z,9.55
2023-04-29T15:59:03.839Z,10.43
2023-04-29T16:01:30.798Z,9.27
2023-04-29T16:03:57.257Z,8.52
2023-04-29T16:06:23.696Z,8.80
2023-04-29T16:08:50.256Z,8.35
2023-04-29T16:11:16.673Z,8.50
2023-04-29T16:13:43.119Z,10.32
2023-04-29T16:16:09.553Z,8.65
2023-04-29T16:18:36.050Z,12.57
2023-04-29T16:21:02.824Z,10.73
2023-04-29T16:23:29.272Z,9.35
2023-04-29T16:25:55.766Z,8.80
2023-04-29T16:28:22.272Z,8.02
2023-04-29T16:30:48.882Z,8.90
2023-04-29T16:33:16.246Z,10.13
2023-04-29T16:35:42.705Z,6.75
2023-04-29T16:38:09.083Z,8.80
2023-04-29T16:40:35.575Z,7.20
2023-04-29T16:43:01.992Z,9.32
2023-04-29T16:45:28.482Z,9.00
2023-04-29T16:47:55.059Z,9.43
2023-04-29T16:50:21.701Z,10.48
2023-04-29T16:52:48.516Z,8.95
2023-04-29T16:55:15.126Z,9.75
2023-04-29T16:57:42.188Z,8.05
2023-04-29T17:00:10.227Z,7.93
2023-04-29T17:02:37.472Z,8.45
2023-04-29T17:05:04.228Z,10.15
2023-04-29T17:07:31.673Z,8.75
2023-04-29T17:09:58.257Z,7.97
2023-04-29T17:12:25.315Z,12.32
2023-04-29T17:14:51.803Z,17.70
2023-04-29T17:17:18.724Z,17.52
2023-04-29T17:19:49.782Z,20.02
2023-04-29T17:22:16.969Z,14.80
2023-04-29T17:24:47.862Z,20.75
2023-04-29T17:27:14.490Z,16.63
2023-04-29T17:29:41.632Z,13.48
2023-04-29T17:32:12.437Z,13.20
2023-04-29T17:34:39.087Z,16.35
2023-04-29T17:37:06.622Z,22.67
2023-04-29T17:39:33.941Z,21.77
2023-04-29T17:42:01.258Z,19.60
2023-04-29T17:44:27.648Z,12.63
2023-04-29T17:46:54.335Z,11.55
2023-04-29T17:49:20.734Z,11.85
2023-04-29T17:51:47.174Z,10.63
2023-04-29T17:54:13.604Z,12.32
2023-04-29T17:56:40.026Z,13.43
2023-04-29T17:59:07.946Z,11.32
2023-04-29T18:01:35.738Z,9.02
2023-04-29T18:04:02.260Z,8.85
2023-04-29T18:06:30.214Z,8.77
2023-04-29T18:08:56.935Z,7.72
2023-04-29T18:11:23.383Z,7.75
2023-04-29T18:13:52.810Z,6.47
2023-04-29T18:16:19.272Z,7.70
2023-04-29T18:18:46.334Z,7.43
2023-04-29T18:21:13.276Z,6.53
2023-04-29T18:23:40.578Z,6.53
2023-04-29T18:26:08.247Z,6.47
2023-04-29T18:28:35.121Z,7.85
2023-04-29T18:31:01.879Z,6.22
2023-04-29T18:33:30.843Z,9.43
2023-04-29T18:35:57.519Z,6.30
2023-04-29T18:38:24.677Z,6.45
2023-04-29T18:40:51.455Z,6.97
2023-04-29T18:43:22.209Z,5.95
2023-04-29T18:45:48.696Z,7.55
2023-04-29T18:48:15.305Z,6.25
2023-04-29T18:50:42.149Z,7.88
2023-04-29T18:53:08.557Z,8.48
2023-04-29T18:55:35.875Z,8.52
2023-04-29T18:58:02.267Z,7.65
2023-04-29T19:00:29.471Z,7.10
2023-04-29T19:02:56.492Z,7.93
2023-04-29T19:05:23.429Z,8.80
2023-04-29T19:07:49.827Z,8.73
2023-04-29T19:10:16.337Z,6.72
2023-04-29T19:12:42.882Z,6.95
2023-04-29T19:15:09.949Z,7.40
2023-04-29T19:17:36.422Z,8.95
2023-04-29T19:20:03.345Z,8.48
2023-04-29T19:22:30.940Z,8.00
2023-04-29T19:24:57.416Z,9.23
2023-04-29T19:27:24.084Z,11.18
2023-04-29T19:29:51.011Z,9.07
2023-04-29T19:32:17.500Z,8.80
2023-04-29T19:34:44.176Z,9.10
2023-04-29T19:37:10.598Z,10.15
2023-04-29T19:39:36.979Z,8.77
2023-04-29T19:42:03.932Z,9.70
2023-04-29T19:44:30.748Z,10.35
2023-04-29T19:46:57.757Z,9.60
2023-04-29T19:49:24.459Z,10.80
2023-04-29T19:51:51.681Z,9.57
2023-04-29T19:54:18.147Z,12.98
2023-04-29T19:56:44.624Z,12.40
2023-04-29T19:59:13.162Z,12.30
2023-04-29T20:01:39.921Z,13.05
2023-04-29T20:04:06.788Z,14.63
2023-04-29T20:06:34.962Z,12.25
2023-04-29T20:09:01.869Z,13.80
2023-04-29T20:11:28.288Z,12.55
2023-04-29T20:13:55.186Z,12.68
2023-04-29T20:16:23.209Z,11.35
2023-04-29T20:18:49.664Z,10.68
2023-04-29T20:21:16.079Z,10.57
2023-04-29T20:23:42.947Z,10.93
2023-04-29T20:26:09.304Z,12.73
2023-04-29T20:28:36.053Z,12.40
2023-04-29T20:31:02.722Z,10.13
2023-04-29T20:33:29.163Z,10.50
2023-04-29T20:35:57.315Z,11.40
2023-04-29T20:38:24.716Z,12.25
2023-04-29T20:40:54.291Z,11.23
2023-04-29T20:43:20.695Z,14.50
2023-04-29T20:45:47.116Z,9.90
2023-04-29T20:48:13.551Z,12.30
2023-04-29T20:50:39.932Z,11.63
2023-04-29T20:53:06.990Z,10.68
2023-04-29T20:55:33.550Z,12.27
2023-04-29T20:57:59.934Z,10.95
2023-04-29T21:00:26.419Z,8.70
2023-04-29T21:02:52.844Z,9.68
2023-04-29T21:05:19.603Z,8.30
2023-04-29T21:07:46.019Z,10.85
2023-04-29T21:10:13.223Z,9.38
2023-04-29T21:12:40.368Z,8.95
2023-04-29T21:15:07.262Z,8.70
2023-04-29T21:17:33.646Z,12.75
2023-04-29T21:20:00.101Z,9.35
2023-04-29T21:22:26.569Z,8.63
2023-04-29T21:24:53.014Z,9.18
2023-04-29T21:27:19.615Z,11.65
2023-04-29T21:29:46.012Z,9.02
2023-04-29T21:32:12.440Z,11.20
2023-04-29T21:34:38.859Z,11.00
2023-04-29T21:37:05.366Z,9.65
2023-04-29T21:39:32.098Z,9.70
2023-04-29T21:42:00.582Z,10.38
2023-04-29T21:44:27.065Z,9.30
2023-04-29T21:46:53.734Z,10.15
2023-04-29T21:49:20.907Z,10.18
2023-04-29T21:51:47.835Z,11.48
2023-04-29T21:54:14.233Z,10.02
2023-04-29T21:56:40.789Z,8.32
2023-04-29T21:59:07.273Z,9.45
2023-04-29T22:01:45.437Z,10.95
2023-04-29T22:04:12.011Z,9.68
2023-04-29T22:06:38.496Z,8.55
2023-04-29T22:09:06.473Z,9.18
2023-04-29T22:11:33.184Z,10.30
2023-04-29T22:13:59.631Z,8.10
2023-04-29T22:16:26.243Z,10.55
2023-04-29T22:18:52.891Z,9.45
2023-04-29T22:21:19.508Z,11.25
2023-04-29T22:23:46.459Z,7.82
2023-04-29T22:26:12.866Z,8.65
2023-04-29T22:28:39.370Z,9.55
2023-04-29T22:31:06.336Z,9.57
2023-04-29T22:33:34.484Z,9.27
2023-04-29T22:36:01.104Z,10.60
2023-04-29T22:38:27.672Z,9.70
2023-04-29T22:40:54.096Z,11.55
2023-04-29T22:43:20.701Z,14.18
2023-04-29T22:45:52.037Z,13.40
2023-04-29T22:48:18.799Z,14.32
2023-04-29T22:50:52.437Z,13.18
2023-04-29T22:53:20.064Z,10.85
2023-04-29T22:55:54.196Z,12.90
2023-04-29T22:58:21.769Z,12.25
2023-04-29T23:00:56.591Z,13.60
2023-04-29T23:03:23.862Z,13.50
2023-04-29T23:05:50.470Z,13.95
2023-04-29T23:08:16.913Z,12.15
2023-04-29T23:10:48.306Z,15.90
2023-04-29T23:13:14.976Z,12.35
2023-04-29T23:15:41.464Z,13.10
2023-04-29T23:18:08.038Z,11.63
2023-04-29T23:20:34.534Z,10.15
2023-04-29T23:23:01.220Z,12.05
2023-04-29T23:25:27.732Z,12.82
2023-04-29T23:27:55.588Z,11.93
2023-04-29T23:30:22.231Z,9.57
2023-04-29T23:32:48.787Z,12.70
2023-04-29T23:35:15.758Z,12.57
2023-04-29T23:37:42.202Z,12.27
2023-04-29T23:40:09.184Z,12.25
2023-04-29T23:42:35.634Z,12.23
2023-04-29T23:45:02.123Z,14.50
2023-04-29T23:47:28.558Z,13.05
2023-04-29T23:49:55.288Z,14.50
2023-04-29T23:52:22.554Z,13.50
2023-04-29T23:54:48.961Z,13.55
2023-04-29T23:57:15.434Z,12.55
2023-04-29T23:59:42.478Z,12.23
